Terminal Aerodrome Forecast
Issued by NWS

Current Version | Previous Version | Graphics & Text | Print | Product List | Glossary On
Versions: 1 2 3 4 5 6 7 8 9 10 11 12 13 14 15 16 17 18 19 20 21 22 23 24 25 26 27 28 29 30 31 32 33
000
FTUS41 KRNK 250941 AAB
TAFLWB
TAF AMD
KLWB 250941Z 2510/2606 05005KT P6SM SCT025 BKN050
      TEMPO 2511/2513 3SM BR BKN025
     FM251330 26004KT P6SM SCT050 BKN250
     FM260400 00000KT 4SM BR SCT250=

USA.gov is the U.S. government's official web portal to all federal, state and local government web resources and services.